首页
METAR-TAF:

METAR-TAF

机场 :

北京首都国际机场

北京, 中华人民共和国

纬度: 39-56N, 经度: 116-17E, 海拔: 55米

当前天气观测

该预报发布于29分钟前的08:30 UTC
风速12节,风向西,在西转西南西转西北之间变化
温度 26°C
湿度 9%
气压 1015 hPa
能见度10公里或以上
1500米以下无云,无积雨云

METAR: ZBAA 030830Z 27006MPS 240V300 CAVOK 26/M09 Q1015 NOSIG

时间: 16:59 (08:59 UTC)

预报

该预报发布于5小时和58分钟前的03:01 UTC
预报有效从03日的 06点(UTC)到 04日的 06点(UTC)
风速8节,风向西南
能见度10公里或以上
1500米以下无云,无积雨云

TAF: ZBAA 030301Z 0306/0406 22004MPS CAVOK TX24/0307Z TN06/0321Z

超过4000个机场的气象观测和天气预报(METAR&TAF报告)。

可查询的气象台以黄色和红色小点在地图上表示。

将鼠标移到小点上方,可查看气象台名称。

然后点击查看天气观测和预报。

如需切换地图:点击带黑十字的绿色按钮放大地图;点击带横线的绿色按钮缩小地图;或者点击绿色箭头查看邻近地区的地图。


METAR-TAF: